sensor_id;sensor_type;location;lat;lon;timestamp;pressure;altitude;pressure_sealevel;temperature;humidity
46408;BME280;32110;45.724;21.276;2023-07-20T00:01:13;99942.22;;;21.74;80.95
46408;BME280;32110;45.724;21.276;2023-07-20T00:03:38;99948.22;;;21.80;80.76
46408;BME280;32110;45.724;21.276;2023-07-20T00:06:04;99933.56;;;21.77;80.66
46408;BME280;32110;45.724;21.276;2023-07-20T00:08:30;99939.06;;;21.81;80.67
46408;BME280;32110;45.724;21.276;2023-07-20T00:10:55;99918.06;;;21.65;80.59
46408;BME280;32110;45.724;21.276;2023-07-20T00:13:20;99940.00;;;21.76;80.96
46408;BME280;32110;45.724;21.276;2023-07-20T00:15:46;99945.22;;;21.73;80.80
46408;BME280;32110;45.724;21.276;2023-07-20T00:18:12;99932.75;;;21.68;80.70
46408;BME280;32110;45.724;21.276;2023-07-20T00:20:38;99920.91;;;21.60;80.80
46408;BME280;32110;45.724;21.276;2023-07-20T00:23:03;99867.19;;;21.34;80.96
46408;BME280;32110;45.724;21.276;2023-07-20T00:25:29;99881.78;;;21.51;80.74
46408;BME280;32110;45.724;21.276;2023-07-20T00:27:54;99884.63;;;21.54;80.91
46408;BME280;32110;45.724;21.276;2023-07-20T00:30:20;99875.75;;;21.45;81.22
46408;BME280;32110;45.724;21.276;2023-07-20T00:32:45;99908.72;;;21.54;81.23
46408;BME280;32110;45.724;21.276;2023-07-20T00:35:11;99903.19;;;21.42;81.45
46408;BME280;32110;45.724;21.276;2023-07-20T00:37:37;99927.59;;;21.40;81.73
46408;BME280;32110;45.724;21.276;2023-07-20T00:40:02;99934.53;;;21.41;81.85
46408;BME280;32110;45.724;21.276;2023-07-20T00:42:29;99933.97;;;21.31;81.78
46408;BME280;32110;45.724;21.276;2023-07-20T00:44:55;99944.09;;;21.34;81.89
46408;BME280;32110;45.724;21.276;2023-07-20T00:47:20;99947.56;;;21.34;82.07
46408;BME280;32110;45.724;21.276;2023-07-20T00:49:46;99938.97;;;21.23;82.13
46408;BME280;32110;45.724;21.276;2023-07-20T00:52:13;99926.41;;;21.24;82.33
46408;BME280;32110;45.724;21.276;2023-07-20T00:54:40;99932.84;;;21.23;82.43
46408;BME280;32110;45.724;21.276;2023-07-20T00:57:07;99952.69;;;21.22;82.44
46408;BME280;32110;45.724;21.276;2023-07-20T00:59:34;99942.47;;;21.01;82.72
46408;BME280;32110;45.724;21.276;2023-07-20T01:02:00;99949.31;;;21.08;82.46
46408;BME280;32110;45.724;21.276;2023-07-20T01:04:25;99944.53;;;21.04;82.60
46408;BME280;32110;45.724;21.276;2023-07-20T01:09:45;99937.56;;;20.95;82.87
46408;BME280;32110;45.724;21.276;2023-07-20T01:12:20;99940.56;;;20.93;82.83
46408;BME280;32110;45.724;21.276;2023-07-20T01:14:48;99940.97;;;20.87;82.96
46408;BME280;32110;45.724;21.276;2023-07-20T01:17:14;99919.50;;;20.78;83.11
46408;BME280;32110;45.724;21.276;2023-07-20T01:19:39;99929.47;;;20.86;83.03
46408;BME280;32110;45.724;21.276;2023-07-20T01:33:38;99908.66;;;20.38;84.63
46408;BME280;32110;45.724;21.276;2023-07-20T01:36:06;99946.34;;;20.50;84.86
46408;BME280;32110;45.724;21.276;2023-07-20T01:38:32;99916.59;;;20.29;85.62
46408;BME280;32110;45.724;21.276;2023-07-20T01:40:57;99926.16;;;20.30;86.18
46408;BME280;32110;45.724;21.276;2023-07-20T01:43:23;99930.34;;;20.23;86.35
46408;BME280;32110;45.724;21.276;2023-07-20T01:45:48;99932.66;;;20.15;87.00
46408;BME280;32110;45.724;21.276;2023-07-20T01:48:14;99938.00;;;20.15;87.47
46408;BME280;32110;45.724;21.276;2023-07-20T01:50:39;99932.09;;;20.05;87.73
46408;BME280;32110;45.724;21.276;2023-07-20T01:53:05;99925.38;;;19.93;88.41
46408;BME280;32110;45.724;21.276;2023-07-20T01:55:30;99924.09;;;19.91;88.45
46408;BME280;32110;45.724;21.276;2023-07-20T01:57:56;99916.16;;;19.86;88.77
46408;BME280;32110;45.724;21.276;2023-07-20T02:00:21;99909.34;;;19.80;88.87
46408;BME280;32110;45.724;21.276;2023-07-20T02:02:49;99907.97;;;19.68;89.29
46408;BME280;32110;45.724;21.276;2023-07-20T02:05:15;99901.59;;;19.64;89.43
46408;BME280;32110;45.724;21.276;2023-07-20T02:07:41;99917.34;;;19.66;89.86
46408;BME280;32110;45.724;21.276;2023-07-20T02:10:07;99889.06;;;19.37;90.21
46408;BME280;32110;45.724;21.276;2023-07-20T02:12:32;99913.78;;;19.57;90.51
46408;BME280;32110;45.724;21.276;2023-07-20T02:14:57;99905.28;;;19.54;90.33
46408;BME280;32110;45.724;21.276;2023-07-20T02:17:23;99925.34;;;19.52;90.78
46408;BME280;32110;45.724;21.276;2023-07-20T02:19:57;99915.06;;;19.45;90.86
46408;BME280;32110;45.724;21.276;2023-07-20T02:22:23;99923.47;;;19.52;91.04
46408;BME280;32110;45.724;21.276;2023-07-20T02:24:48;99921.78;;;19.43;91.08
46408;BME280;32110;45.724;21.276;2023-07-20T02:27:15;99926.72;;;19.36;91.74
46408;BME280;32110;45.724;21.276;2023-07-20T02:29:40;99947.28;;;19.35;91.66
46408;BME280;32110;45.724;21.276;2023-07-20T02:32:06;99949.47;;;19.33;91.42
46408;BME280;32110;45.724;21.276;2023-07-20T02:34:32;99939.94;;;19.27;91.92
46408;BME280;32110;45.724;21.276;2023-07-20T02:36:58;99946.56;;;19.29;91.94
46408;BME280;32110;45.724;21.276;2023-07-20T02:39:27;99944.31;;;19.23;92.31
46408;BME280;32110;45.724;21.276;2023-07-20T02:41:52;99947.16;;;19.26;92.70
46408;BME280;32110;45.724;21.276;2023-07-20T02:44:17;99943.28;;;19.19;92.74
46408;BME280;32110;45.724;21.276;2023-07-20T02:46:43;99941.78;;;19.12;92.83
46408;BME280;32110;45.724;21.276;2023-07-20T02:49:08;99950.59;;;19.13;93.16
46408;BME280;32110;45.724;21.276;2023-07-20T02:51:34;99947.94;;;19.13;92.93
46408;BME280;32110;45.724;21.276;2023-07-20T02:54:00;99935.06;;;19.01;93.04
46408;BME280;32110;45.724;21.276;2023-07-20T02:56:26;99949.88;;;19.07;93.29
46408;BME280;32110;45.724;21.276;2023-07-20T02:58:52;99947.03;;;19.04;93.80
46408;BME280;32110;45.724;21.276;2023-07-20T03:01:17;99952.88;;;19.06;93.82
46408;BME280;32110;45.724;21.276;2023-07-20T03:03:43;99951.06;;;19.01;93.85
46408;BME280;32110;45.724;21.276;2023-07-20T03:06:12;99930.09;;;18.95;93.97
46408;BME280;32110;45.724;21.276;2023-07-20T03:08:38;99936.22;;;18.95;94.13
46408;BME280;32110;45.724;21.276;2023-07-20T03:11:03;99939.66;;;18.96;94.07
46408;BME280;32110;45.724;21.276;2023-07-20T03:13:29;99938.19;;;19.03;94.23
46408;BME280;32110;45.724;21.276;2023-07-20T03:15:55;99921.72;;;19.01;94.22
46408;BME280;32110;45.724;21.276;2023-07-20T03:18:20;99941.00;;;19.12;93.96
46408;BME280;32110;45.724;21.276;2023-07-20T03:20:45;99937.53;;;19.11;93.71
46408;BME280;32110;45.724;21.276;2023-07-20T03:23:11;99939.13;;;19.12;93.64
46408;BME280;32110;45.724;21.276;2023-07-20T03:25:36;99940.22;;;19.11;93.67
46408;BME280;32110;45.724;21.276;2023-07-20T03:28:03;99926.97;;;19.06;93.71
46408;BME280;32110;45.724;21.276;2023-07-20T03:30:28;99925.63;;;18.90;93.93
46408;BME280;32110;45.724;21.276;2023-07-20T03:32:53;99935.94;;;18.97;94.15
46408;BME280;32110;45.724;21.276;2023-07-20T03:35:19;99946.78;;;19.00;94.29
46408;BME280;32110;45.724;21.276;2023-07-20T03:37:44;99942.13;;;18.92;94.06
46408;BME280;32110;45.724;21.276;2023-07-20T03:40:10;99961.22;;;18.99;94.32
46408;BME280;32110;45.724;21.276;2023-07-20T03:42:35;99964.78;;;18.95;94.45
46408;BME280;32110;45.724;21.276;2023-07-20T03:45:01;99968.81;;;18.92;94.46
46408;BME280;32110;45.724;21.276;2023-07-20T03:47:28;99974.66;;;18.94;94.65
46408;BME280;32110;45.724;21.276;2023-07-20T03:49:54;99974.34;;;18.96;94.71
46408;BME280;32110;45.724;21.276;2023-07-20T03:52:19;99987.41;;;18.97;94.80
46408;BME280;32110;45.724;21.276;2023-07-20T03:54:45;99984.16;;;19.00;95.02
46408;BME280;32110;45.724;21.276;2023-07-20T03:57:10;99993.44;;;19.03;94.92
46408;BME280;32110;45.724;21.276;2023-07-20T03:59:37;99985.16;;;19.04;95.18
46408;BME280;32110;45.724;21.276;2023-07-20T04:02:02;99991.78;;;19.07;95.08
46408;BME280;32110;45.724;21.276;2023-07-20T04:04:28;99985.59;;;19.11;95.09
46408;BME280;32110;45.724;21.276;2023-07-20T04:06:53;99994.28;;;19.17;95.08
46408;BME280;32110;45.724;21.276;2023-07-20T04:09:18;99991.06;;;19.20;95.39
46408;BME280;32110;45.724;21.276;2023-07-20T04:11:44;100007.78;;;19.26;95.49
46408;BME280;32110;45.724;21.276;2023-07-20T04:14:09;100005.91;;;19.26;96.12
46408;BME280;32110;45.724;21.276;2023-07-20T04:16:34;100025.78;;;19.34;96.46
46408;BME280;32110;45.724;21.276;2023-07-20T04:19:00;100038.84;;;19.36;97.38
46408;BME280;32110;45.724;21.276;2023-07-20T04:21:26;100039.88;;;19.40;96.98
46408;BME280;32110;45.724;21.276;2023-07-20T04:23:52;100030.56;;;19.37;97.64
46408;BME280;32110;45.724;21.276;2023-07-20T04:26:17;100016.03;;;19.43;97.34
46408;BME280;32110;45.724;21.276;2023-07-20T04:28:43;99997.13;;;19.40;97.30
46408;BME280;32110;45.724;21.276;2023-07-20T04:31:13;100025.44;;;19.54;97.45
46408;BME280;32110;45.724;21.276;2023-07-20T04:33:39;100032.88;;;19.58;97.79
46408;BME280;32110;45.724;21.276;2023-07-20T04:36:05;100039.97;;;19.48;97.95
46408;BME280;32110;45.724;21.276;2023-07-20T04:38:30;100047.41;;;19.51;97.99
46408;BME280;32110;45.724;21.276;2023-07-20T04:40:55;100064.41;;;19.55;98.70
46408;BME280;32110;45.724;21.276;2023-07-20T04:43:21;100071.47;;;19.65;99.01
46408;BME280;32110;45.724;21.276;2023-07-20T04:45:46;100068.50;;;19.67;98.77
46408;BME280;32110;45.724;21.276;2023-07-20T04:48:13;100067.72;;;19.66;99.03
46408;BME280;32110;45.724;21.276;2023-07-20T04:50:44;100077.25;;;19.72;99.22
46408;BME280;32110;45.724;21.276;2023-07-20T04:53:13;100073.00;;;19.71;99.37
46408;BME280;32110;45.724;21.276;2023-07-20T04:55:46;100066.47;;;19.77;99.81
46408;BME280;32110;45.724;21.276;2023-07-20T04:58:15;100054.13;;;19.82;99.45
46408;BME280;32110;45.724;21.276;2023-07-20T05:00:41;100050.94;;;19.80;99.48
46408;BME280;32110;45.724;21.276;2023-07-20T05:03:06;100070.56;;;19.89;98.99
46408;BME280;32110;45.724;21.276;2023-07-20T05:05:31;100069.38;;;19.95;99.29
46408;BME280;32110;45.724;21.276;2023-07-20T05:07:57;100055.31;;;19.89;99.43
46408;BME280;32110;45.724;21.276;2023-07-20T05:10:23;100079.88;;;20.05;99.67
46408;BME280;32110;45.724;21.276;2023-07-20T05:12:49;100056.81;;;19.95;99.54
46408;BME280;32110;45.724;21.276;2023-07-20T05:15:14;100049.28;;;19.97;99.41
46408;BME280;32110;45.724;21.276;2023-07-20T05:17:40;100068.31;;;20.24;99.01
46408;BME280;32110;45.724;21.276;2023-07-20T05:20:06;100078.81;;;20.34;97.71
46408;BME280;32110;45.724;21.276;2023-07-20T05:22:31;100068.78;;;20.39;97.51
46408;BME280;32110;45.724;21.276;2023-07-20T05:24:57;100078.31;;;20.46;96.86
46408;BME280;32110;45.724;21.276;2023-07-20T05:27:22;100083.75;;;20.54;96.36
46408;BME280;32110;45.724;21.276;2023-07-20T05:29:48;100089.03;;;20.59;94.59
46408;BME280;32110;45.724;21.276;2023-07-20T05:32:13;100082.56;;;20.60;94.07
46408;BME280;32110;45.724;21.276;2023-07-20T05:34:39;100071.28;;;20.50;94.26
46408;BME280;32110;45.724;21.276;2023-07-20T05:37:05;100084.84;;;20.67;93.81
46408;BME280;32110;45.724;21.276;2023-07-20T05:39:32;100086.78;;;20.75;93.39
46408;BME280;32110;45.724;21.276;2023-07-20T05:41:58;100074.81;;;20.73;92.59
46408;BME280;32110;45.724;21.276;2023-07-20T05:44:23;100075.81;;;20.77;92.22
46408;BME280;32110;45.724;21.276;2023-07-20T05:46:49;100074.41;;;20.79;91.94
46408;BME280;32110;45.724;21.276;2023-07-20T05:49:14;100080.34;;;20.90;92.18
46408;BME280;32110;45.724;21.276;2023-07-20T05:51:39;100066.47;;;20.88;91.70
46408;BME280;32110;45.724;21.276;2023-07-20T05:54:05;100068.91;;;20.98;91.38
46408;BME280;32110;45.724;21.276;2023-07-20T05:56:30;100066.41;;;21.02;90.90
46408;BME280;32110;45.724;21.276;2023-07-20T05:58:55;100061.53;;;21.04;91.01
46408;BME280;32110;45.724;21.276;2023-07-20T06:01:21;100068.06;;;21.12;90.65
46408;BME280;32110;45.724;21.276;2023-07-20T06:03:46;100071.41;;;21.17;90.22
46408;BME280;32110;45.724;21.276;2023-07-20T06:06:12;100073.78;;;21.19;90.19
46408;BME280;32110;45.724;21.276;2023-07-20T06:08:38;100071.09;;;21.19;89.93
46408;BME280;32110;45.724;21.276;2023-07-20T06:11:03;100080.59;;;21.25;89.99
46408;BME280;32110;45.724;21.276;2023-07-20T06:13:29;100062.78;;;21.20;89.56
46408;BME280;32110;45.724;21.276;2023-07-20T06:15:54;100074.63;;;21.28;89.50
46408;BME280;32110;45.724;21.276;2023-07-20T06:18:24;100070.09;;;21.29;89.46
46408;BME280;32110;45.724;21.276;2023-07-20T06:20:52;100080.97;;;21.32;89.47
46408;BME280;32110;45.724;21.276;2023-07-20T06:23:19;100078.00;;;21.34;89.50
46408;BME280;32110;45.724;21.276;2023-07-20T06:25:44;100073.13;;;21.36;89.33
46408;BME280;32110;45.724;21.276;2023-07-20T06:28:10;100076.50;;;21.41;88.78
46408;BME280;32110;45.724;21.276;2023-07-20T06:30:35;100083.44;;;21.42;88.83
46408;BME280;32110;45.724;21.276;2023-07-20T06:33:00;100098.31;;;21.49;88.72
46408;BME280;32110;45.724;21.276;2023-07-20T08:09:12;100039.13;;;22.65;85.76
46408;BME280;32110;45.724;21.276;2023-07-20T08:11:39;100039.13;;;22.65;85.17
46408;BME280;32110;45.724;21.276;2023-07-20T08:14:04;100039.44;;;22.72;85.48
46408;BME280;32110;45.724;21.276;2023-07-20T08:16:30;100035.50;;;22.69;85.25
46408;BME280;32110;45.724;21.276;2023-07-20T08:18:55;100044.50;;;22.73;85.25
46408;BME280;32110;45.724;21.276;2023-07-20T08:21:20;100012.31;;;22.56;84.97
46408;BME280;32110;45.724;21.276;2023-07-20T08:23:46;100037.91;;;22.80;85.22
46408;BME280;32110;45.724;21.276;2023-07-20T08:28:37;100032.84;;;22.78;84.91
46408;BME280;32110;45.724;21.276;2023-07-20T08:31:05;100028.09;;;22.75;84.80
46408;BME280;32110;45.724;21.276;2023-07-20T08:33:32;100030.94;;;22.79;84.97
46408;BME280;32110;45.724;21.276;2023-07-20T08:35:59;100036.47;;;22.73;85.32
46408;BME280;32110;45.724;21.276;2023-07-20T08:38:26;100035.06;;;22.67;85.59
46408;BME280;32110;45.724;21.276;2023-07-20T08:40:51;100054.63;;;22.77;85.81
46408;BME280;32110;45.724;21.276;2023-07-20T08:43:19;100052.56;;;22.73;85.87
46408;BME280;32110;45.724;21.276;2023-07-20T08:45:45;100067.72;;;22.78;85.68
46408;BME280;32110;45.724;21.276;2023-07-20T08:48:12;100078.00;;;22.76;85.96
46408;BME280;32110;45.724;21.276;2023-07-20T08:53:45;100081.13;;;22.69;86.14
46408;BME280;32110;45.724;21.276;2023-07-20T08:56:11;100085.41;;;22.70;86.23
46408;BME280;32110;45.724;21.276;2023-07-20T08:58:39;100076.09;;;22.68;86.25
46408;BME280;32110;45.724;21.276;2023-07-20T09:03:32;100090.44;;;22.72;86.09
46408;BME280;32110;45.724;21.276;2023-07-20T09:05:59;100091.72;;;22.75;86.13
46408;BME280;32110;45.724;21.276;2023-07-20T09:08:25;100084.31;;;22.71;86.57
46408;BME280;32110;45.724;21.276;2023-07-20T09:10:50;100076.88;;;22.68;86.44
46408;BME280;32110;45.724;21.276;2023-07-20T09:13:16;100084.78;;;22.73;86.56
46408;BME280;32110;45.724;21.276;2023-07-20T09:15:48;100090.47;;;22.81;87.14
46408;BME280;32110;45.724;21.276;2023-07-20T09:18:25;100091.75;;;22.83;86.90
46408;BME280;32110;45.724;21.276;2023-07-20T09:20:51;100084.31;;;22.80;86.73
46408;BME280;32110;45.724;21.276;2023-07-20T09:23:16;100072.63;;;22.85;86.41
46408;BME280;32110;45.724;21.276;2023-07-20T09:25:42;100090.63;;;22.93;86.25
46408;BME280;32110;45.724;21.276;2023-07-20T09:28:07;100079.13;;;22.92;86.17
46408;BME280;32110;45.724;21.276;2023-07-20T09:30:33;100069.78;;;22.90;86.35
46408;BME280;32110;45.724;21.276;2023-07-20T09:32:58;100072.00;;;22.97;86.48
46408;BME280;32110;45.724;21.276;2023-07-20T09:35:42;100075.03;;;23.04;86.43
46408;BME280;32110;45.724;21.276;2023-07-20T09:38:26;100074.25;;;23.03;86.54
46408;BME280;32110;45.724;21.276;2023-07-20T09:40:53;100064.63;;;23.02;86.27
46408;BME280;32110;45.724;21.276;2023-07-20T09:43:19;100065.56;;;23.06;86.00
46408;BME280;32110;45.724;21.276;2023-07-20T09:45:44;100070.28;;;23.09;86.00
46408;BME280;32110;45.724;21.276;2023-07-20T09:48:11;100079.78;;;23.16;85.79
46408;BME280;32110;45.724;21.276;2023-07-20T09:50:56;100054.78;;;22.98;85.45
46408;BME280;32110;45.724;21.276;2023-07-20T09:53:24;100052.75;;;23.03;85.47
46408;BME280;32110;45.724;21.276;2023-07-20T09:55:52;100062.38;;;23.22;84.83
46408;BME280;32110;45.724;21.276;2023-07-20T09:58:18;100064.59;;;23.28;84.78
46408;BME280;32110;45.724;21.276;2023-07-20T10:03:29;100056.66;;;23.32;84.06
46408;BME280;32110;45.724;21.276;2023-07-20T10:06:19;100069.31;;;23.40;83.63
46408;BME280;32110;45.724;21.276;2023-07-20T10:08:47;100054.94;;;23.36;82.89
46408;BME280;32110;45.724;21.276;2023-07-20T10:11:34;100070.56;;;23.51;82.60
46408;BME280;32110;45.724;21.276;2023-07-20T10:14:03;100053.81;;;23.46;82.11
46408;BME280;32110;45.724;21.276;2023-07-20T10:16:38;100065.50;;;23.59;80.96
46408;BME280;32110;45.724;21.276;2023-07-20T10:19:16;100064.50;;;23.63;80.68
46408;BME280;32110;45.724;21.276;2023-07-20T10:21:48;100064.97;;;23.65;80.35
46408;BME280;32110;45.724;21.276;2023-07-20T10:24:17;100083.03;;;23.73;80.21
46408;BME280;32110;45.724;21.276;2023-07-20T10:26:43;100068.16;;;23.76;80.00
46408;BME280;32110;45.724;21.276;2023-07-20T10:29:09;100066.72;;;23.78;79.93
46408;BME280;32110;45.724;21.276;2023-07-20T10:31:35;100062.59;;;23.81;79.62
46408;BME280;32110;45.724;21.276;2023-07-20T10:34:01;100068.28;;;23.88;79.69
46408;BME280;32110;45.724;21.276;2023-07-20T10:36:28;100079.59;;;24.03;79.65
46408;BME280;32110;45.724;21.276;2023-07-20T10:39:32;100086.53;;;24.12;78.69
46408;BME280;32110;45.724;21.276;2023-07-20T10:42:09;100080.19;;;24.17;78.26
46408;BME280;32110;45.724;21.276;2023-07-20T10:44:41;100073.94;;;24.25;77.44
46408;BME280;32110;45.724;21.276;2023-07-20T10:47:11;100069.03;;;24.27;77.49
46408;BME280;32110;45.724;21.276;2023-07-20T10:49:57;100066.00;;;24.37;77.51
46408;BME280;32110;45.724;21.276;2023-07-20T10:52:24;100067.69;;;24.42;77.11
46408;BME280;32110;45.724;21.276;2023-07-20T10:54:51;100072.94;;;24.47;76.99
46408;BME280;32110;45.724;21.276;2023-07-20T10:57:36;100077.41;;;24.64;76.67
46408;BME280;32110;45.724;21.276;2023-07-20T11:00:13;100066.91;;;24.71;76.08
46408;BME280;32110;45.724;21.276;2023-07-20T11:02:49;100056.56;;;24.73;75.88
46408;BME280;32110;45.724;21.276;2023-07-20T11:05:37;100064.41;;;24.87;75.22
46408;BME280;32110;45.724;21.276;2023-07-20T11:08:04;100048.91;;;24.84;74.74
46408;BME280;32110;45.724;21.276;2023-07-20T11:10:30;100058.94;;;24.96;74.62
46408;BME280;32110;45.724;21.276;2023-07-20T11:13:18;100063.06;;;25.14;74.49
46408;BME280;32110;45.724;21.276;2023-07-20T11:16:02;100060.31;;;25.23;74.37
46408;BME280;32110;45.724;21.276;2023-07-20T11:18:33;100050.38;;;25.36;74.42
46408;BME280;32110;45.724;21.276;2023-07-20T11:20:59;100053.88;;;25.49;73.42
46408;BME280;32110;45.724;21.276;2023-07-20T11:23:27;100045.81;;;25.61;71.53
46408;BME280;32110;45.724;21.276;2023-07-20T11:25:54;100041.44;;;25.68;71.55
46408;BME280;32110;45.724;21.276;2023-07-20T11:28:20;100029.78;;;25.77;71.11
46408;BME280;32110;45.724;21.276;2023-07-20T11:30:51;100033.28;;;25.89;70.78
46408;BME280;32110;45.724;21.276;2023-07-20T11:33:17;100032.81;;;26.00;70.52
46408;BME280;32110;45.724;21.276;2023-07-20T11:38:27;100008.44;;;26.08;69.61
46408;BME280;32110;45.724;21.276;2023-07-20T11:40:53;100019.19;;;26.33;68.77
46408;BME280;32110;45.724;21.276;2023-07-20T11:43:20;100030.19;;;26.52;67.52
46408;BME280;32110;45.724;21.276;2023-07-20T11:45:49;100013.66;;;26.54;67.70
46408;BME280;32110;45.724;21.276;2023-07-20T11:48:15;100019.56;;;26.72;67.14
46408;BME280;32110;45.724;21.276;2023-07-20T11:50:41;100025.97;;;26.80;67.25
46408;BME280;32110;45.724;21.276;2023-07-20T11:53:07;100009.06;;;26.83;66.16
46408;BME280;32110;45.724;21.276;2023-07-20T11:55:33;100010.94;;;26.94;65.89
46408;BME280;32110;45.724;21.276;2023-07-20T11:58:03;100016.28;;;27.07;65.39
46408;BME280;32110;45.724;21.276;2023-07-20T12:00:52;100006.38;;;27.11;65.07
46408;BME280;32110;45.724;21.276;2023-07-20T12:03:19;100002.63;;;27.15;63.67
46408;BME280;32110;45.724;21.276;2023-07-20T12:05:45;99997.00;;;27.21;63.26
46408;BME280;32110;45.724;21.276;2023-07-20T12:08:11;99993.69;;;27.27;63.42
46408;BME280;32110;45.724;21.276;2023-07-20T12:10:56;99997.97;;;27.44;63.14
46408;BME280;32110;45.724;21.276;2023-07-20T12:13:22;99984.53;;;27.48;62.28
46408;BME280;32110;45.724;21.276;2023-07-20T12:15:52;99979.28;;;27.55;60.44
46408;BME280;32110;45.724;21.276;2023-07-20T12:18:22;99986.19;;;27.68;60.93
46408;BME280;32110;45.724;21.276;2023-07-20T12:20:48;99974.22;;;27.69;61.19
46408;BME280;32110;45.724;21.276;2023-07-20T12:23:13;99972.91;;;27.79;60.72
46408;BME280;32110;45.724;21.276;2023-07-20T12:25:41;99970.81;;;27.88;60.78
46408;BME280;32110;45.724;21.276;2023-07-20T12:53:38;99962.03;;;28.46;58.05
46408;BME280;32110;45.724;21.276;2023-07-20T12:56:04;99960.31;;;28.57;58.40
46408;BME280;32110;45.724;21.276;2023-07-20T12:58:30;99957.31;;;28.62;57.98
46408;BME280;32110;45.724;21.276;2023-07-20T13:00:55;99958.31;;;28.74;57.40
46408;BME280;32110;45.724;21.276;2023-07-20T13:03:40;99955.34;;;28.82;56.16
46408;BME280;32110;45.724;21.276;2023-07-20T13:06:06;99947.31;;;28.86;56.47
46408;BME280;32110;45.724;21.276;2023-07-20T13:08:32;99955.63;;;28.97;56.59
46408;BME280;32110;45.724;21.276;2023-07-20T13:10:57;99932.03;;;28.97;56.41
46408;BME280;32110;45.724;21.276;2023-07-20T13:13:23;99943.50;;;29.10;55.71
46408;BME280;32110;45.724;21.276;2023-07-20T13:15:48;99943.63;;;29.17;55.34
46408;BME280;32110;45.724;21.276;2023-07-20T13:18:14;99933.13;;;29.16;55.64
46408;BME280;32110;45.724;21.276;2023-07-20T13:20:39;99933.66;;;29.25;55.06
46408;BME280;32110;45.724;21.276;2023-07-20T13:23:05;99928.66;;;29.27;54.85
46408;BME280;32110;45.724;21.276;2023-07-20T13:25:31;99930.34;;;29.35;54.00
46408;BME280;32110;45.724;21.276;2023-07-20T13:28:15;99933.91;;;29.39;53.70
46408;BME280;32110;45.724;21.276;2023-07-20T13:30:40;99931.31;;;29.46;54.04
46408;BME280;32110;45.724;21.276;2023-07-20T13:33:06;99915.75;;;29.43;53.38
46408;BME280;32110;45.724;21.276;2023-07-20T13:35:33;99919.00;;;29.53;53.94
46408;BME280;32110;45.724;21.276;2023-07-20T13:37:58;99905.84;;;29.55;53.11
46408;BME280;32110;45.724;21.276;2023-07-20T13:40:24;99914.59;;;29.67;53.03
46408;BME280;32110;45.724;21.276;2023-07-20T13:43:08;99918.97;;;29.76;53.10
46408;BME280;32110;45.724;21.276;2023-07-20T13:45:34;99898.84;;;29.77;52.88
46408;BME280;32110;45.724;21.276;2023-07-20T13:48:00;99893.84;;;29.82;52.54
46408;BME280;32110;45.724;21.276;2023-07-20T13:50:25;99891.59;;;29.88;52.63
46408;BME280;32110;45.724;21.276;2023-07-20T13:52:50;99899.88;;;29.99;52.31
46408;BME280;32110;45.724;21.276;2023-07-20T13:55:16;99907.72;;;30.04;52.22
46408;BME280;32110;45.724;21.276;2023-07-20T13:57:41;99892.16;;;30.01;52.43
46408;BME280;32110;45.724;21.276;2023-07-20T14:00:07;99895.38;;;30.10;50.83
46408;BME280;32110;45.724;21.276;2023-07-20T14:02:52;99886.41;;;30.06;51.50
46408;BME280;32110;45.724;21.276;2023-07-20T14:05:18;99893.53;;;30.18;50.77
46408;BME280;32110;45.724;21.276;2023-07-20T14:07:44;99892.75;;;30.17;50.55
46408;BME280;32110;45.724;21.276;2023-07-20T14:10:11;99899.03;;;30.25;50.98
46408;BME280;32110;45.724;21.276;2023-07-20T14:12:37;99885.03;;;30.23;50.80
46408;BME280;32110;45.724;21.276;2023-07-20T14:15:03;99879.19;;;30.21;50.65
46408;BME280;32110;45.724;21.276;2023-07-20T14:17:30;99875.72;;;30.24;50.68
46408;BME280;32110;45.724;21.276;2023-07-20T14:19:55;99877.75;;;30.27;50.50
46408;BME280;32110;45.724;21.276;2023-07-20T14:22:20;99878.19;;;30.29;50.24
46408;BME280;32110;45.724;21.276;2023-07-20T14:24:46;99862.59;;;30.26;49.49
46408;BME280;32110;45.724;21.276;2023-07-20T14:27:11;99876.31;;;30.37;49.47
46408;BME280;32110;45.724;21.276;2023-07-20T14:29:40;99872.03;;;30.36;49.03
46408;BME280;32110;45.724;21.276;2023-07-20T14:32:06;99875.56;;;30.40;49.10
46408;BME280;32110;45.724;21.276;2023-07-20T14:34:32;99859.25;;;30.36;48.87
46408;BME280;32110;45.724;21.276;2023-07-20T14:36:59;99870.56;;;30.45;48.64
46408;BME280;32110;45.724;21.276;2023-07-20T14:39:30;99857.78;;;30.46;49.10
46408;BME280;32110;45.724;21.276;2023-07-20T14:42:14;99867.53;;;30.50;48.03
46408;BME280;32110;45.724;21.276;2023-07-20T14:44:39;99856.22;;;30.45;48.84
46408;BME280;32110;45.724;21.276;2023-07-20T14:47:05;99857.41;;;30.47;48.62
46408;BME280;32110;45.724;21.276;2023-07-20T14:49:30;99844.94;;;30.43;48.64
46408;BME280;32110;45.724;21.276;2023-07-20T14:51:56;99841.50;;;30.49;48.34
46408;BME280;32110;45.724;21.276;2023-07-20T14:54:21;99844.66;;;30.55;48.14
46408;BME280;32110;45.724;21.276;2023-07-20T14:57:05;99852.50;;;30.60;47.94
46408;BME280;32110;45.724;21.276;2023-07-20T15:02:23;99852.97;;;30.73;47.68
46408;BME280;32110;45.724;21.276;2023-07-20T15:04:49;99851.88;;;30.81;46.48
46408;BME280;32110;45.724;21.276;2023-07-20T15:07:19;99844.84;;;30.77;46.81
46408;BME280;32110;45.724;21.276;2023-07-20T15:09:45;99848.03;;;30.82;47.22
46408;BME280;32110;45.724;21.276;2023-07-20T15:12:11;99841.75;;;30.78;45.95
46408;BME280;32110;45.724;21.276;2023-07-20T15:14:40;99846.84;;;30.80;44.36
46408;BME280;32110;45.724;21.276;2023-07-20T15:17:07;99848.47;;;30.84;42.88